Terminal Aerodrome Forecast
Issued by NWS Flagstaff, AZ

Home | Current Version | Previous Version | Text Only | Print | Product List | Glossary On
Versions: 1 2 3 4 5 6 7 8 9 10 11 12 13 14 15 16 17
000
FTUS45 KFGZ 301100
TAFINW
TAF
KINW 301138Z 3012/3112 10010KT 6SM -RA BR SCT025 OVC050
      TEMPO 3012/3016 3SM -RA BR OVC025
     FM301600 11010KT 3SM -RA BR OVC020=

USA.gov is the U.S. government's official web portal to all federal, state and local government web resources and services.